createdAt,value
2022-09-26T00:00:44.380Z,11.6
2022-09-26T00:01:47.646Z,11.6
2022-09-26T00:02:51.042Z,11.5
2022-09-26T00:03:54.007Z,11.5
2022-09-26T00:04:56.748Z,11.5
2022-09-26T00:05:59.642Z,11.5
2022-09-26T00:07:02.273Z,11.5
2022-09-26T00:08:05.100Z,11.5
2022-09-26T00:09:08.648Z,11.5
2022-09-26T00:10:11.643Z,11.5
2022-09-26T00:11:14.058Z,11.5
2022-09-26T00:12:17.762Z,11.5
2022-09-26T00:13:20.924Z,11.5
2022-09-26T00:14:24.416Z,11.5
2022-09-26T00:15:28.557Z,11.5
2022-09-26T00:16:31.745Z,11.5
2022-09-26T00:17:35.189Z,11.5
2022-09-26T00:18:38.144Z,11.5
2022-09-26T00:19:41.608Z,11.5
2022-09-26T00:20:43.845Z,11.5
2022-09-26T00:21:46.835Z,11.4
2022-09-26T00:22:49.982Z,11.4
2022-09-26T00:23:53.140Z,11.4
2022-09-26T00:24:56.127Z,11.4
2022-09-26T00:25:59.202Z,11.4
2022-09-26T00:27:02.570Z,11.4
2022-09-26T00:28:05.084Z,11.4
2022-09-26T00:29:08.166Z,11.4
2022-09-26T00:30:11.876Z,11.4
2022-09-26T00:31:16.381Z,11.4
2022-09-26T00:32:19.833Z,11.4
2022-09-26T00:33:22.351Z,11.4
2022-09-26T00:34:25.780Z,11.4
2022-09-26T00:35:29.154Z,11.4
2022-09-26T00:36:39.549Z,11.4
2022-09-26T00:37:42.613Z,11.4
2022-09-26T00:38:45.761Z,11.4
2022-09-26T00:39:49.094Z,11.4
2022-09-26T00:40:52.999Z,11.4
2022-09-26T00:41:56.319Z,11.4
2022-09-26T00:42:58.479Z,11.4
2022-09-26T00:44:01.629Z,11.4
2022-09-26T00:45:04.138Z,11.4
2022-09-26T00:46:07.435Z,11.4
2022-09-26T00:47:11.850Z,11.4
2022-09-26T00:48:14.372Z,11.4
2022-09-26T00:49:17.307Z,11.4
2022-09-26T00:50:20.109Z,11.4
2022-09-26T00:51:22.644Z,11.4
2022-09-26T00:52:26.066Z,11.4
2022-09-26T00:53:29.343Z,11.4
2022-09-26T00:54:32.524Z,11.4
2022-09-26T00:55:35.356Z,11.4
2022-09-26T00:56:38.185Z,11.4
2022-09-26T00:57:40.974Z,11.4
2022-09-26T00:58:43.680Z,11.4
2022-09-26T00:59:46.487Z,11.4
2022-09-26T01:00:48.926Z,11.4
2022-09-26T01:01:52.157Z,11.3
2022-09-26T01:02:56.831Z,11.3
2022-09-26T01:03:59.943Z,11.4
2022-09-26T01:05:03.434Z,11.3
2022-09-26T01:06:06.304Z,11.4
2022-09-26T01:07:09.843Z,11.3
2022-09-26T01:08:13.254Z,11.4
2022-09-26T01:09:16.660Z,11.3
2022-09-26T01:10:19.724Z,11.4
2022-09-26T01:11:22.536Z,11.3
2022-09-26T01:12:25.252Z,11.4
2022-09-26T01:13:27.766Z,11.3
2022-09-26T01:14:30.543Z,11.3
2022-09-26T01:15:33.621Z,11.3
2022-09-26T01:16:36.735Z,11.4
2022-09-26T01:17:40.344Z,11.3
2022-09-26T01:18:44.686Z,11.3
2022-09-26T01:19:47.506Z,11.3
2022-09-26T01:20:50.840Z,11.4
2022-09-26T01:21:53.278Z,11.3
2022-09-26T01:22:56.081Z,11.3
2022-09-26T01:23:59.789Z,11.3
2022-09-26T01:25:02.902Z,11.3
2022-09-26T01:26:05.423Z,11.3
2022-09-26T01:27:07.651Z,11.3
2022-09-26T01:28:10.048Z,11.4
2022-09-26T01:29:13.510Z,11.3
2022-09-26T01:30:17.566Z,11.4
2022-09-26T01:31:21.501Z,11.3
2022-09-26T01:32:25.340Z,11.3
2022-09-26T01:33:28.796Z,11.4
2022-09-26T01:34:32.178Z,11.4
2022-09-26T01:35:35.470Z,11.3
2022-09-26T01:36:38.561Z,11.3
2022-09-26T01:37:41.559Z,11.3
2022-09-26T01:38:44.569Z,11.3
2022-09-26T01:39:47.674Z,11.3
2022-09-26T01:40:51.257Z,11.3
2022-09-26T01:41:54.794Z,11.3
2022-09-26T01:42:57.514Z,11.3
2022-09-26T01:43:59.986Z,11.3
2022-09-26T01:45:03.686Z,11.3
2022-09-26T01:46:07.232Z,11.3
2022-09-26T01:47:10.820Z,11.3
2022-09-26T01:48:13.877Z,11.3
2022-09-26T01:49:17.143Z,11.3
2022-09-26T01:50:21.310Z,11.3
2022-09-26T01:51:24.314Z,11.3
2022-09-26T01:52:27.776Z,11.3
2022-09-26T01:53:31.135Z,11.3
2022-09-26T01:54:33.860Z,11.3
2022-09-26T01:55:37.307Z,11.2
2022-09-26T01:56:40.094Z,11.2
2022-09-26T01:57:43.183Z,11.2
2022-09-26T01:58:46.557Z,11.2
2022-09-26T01:59:49.451Z,11.2
2022-09-26T02:00:52.350Z,11.2
2022-09-26T02:01:55.248Z,11.2
2022-09-26T02:02:58.051Z,11.2
2022-09-26T02:04:01.190Z,11.2
2022-09-26T02:05:03.411Z,11.2
2022-09-26T02:06:07.537Z,11.2
2022-09-26T02:07:10.615Z,11.1
2022-09-26T02:08:13.047Z,11.1
2022-09-26T02:09:15.570Z,11.1
2022-09-26T02:10:18.704Z,11.1
2022-09-26T02:11:20.944Z,11.1
2022-09-26T02:12:23.462Z,11.1
2022-09-26T02:13:26.832Z,11.2
2022-09-26T02:14:29.624Z,11.1
2022-09-26T02:15:33.002Z,11.1
2022-09-26T02:16:36.073Z,11.1
2022-09-26T02:17:39.329Z,11.1
2022-09-26T02:18:42.046Z,11.2
2022-09-26T02:19:44.925Z,11.2
2022-09-26T02:20:47.742Z,11.1
2022-09-26T02:21:52.001Z,11.1
2022-09-26T02:22:55.355Z,11.2
2022-09-26T02:23:57.960Z,11.2
2022-09-26T02:25:01.120Z,11.2
2022-09-26T02:26:03.675Z,11.2
2022-09-26T02:27:07.354Z,11.2
2022-09-26T02:28:10.229Z,11.2
2022-09-26T02:29:13.445Z,11.2
2022-09-26T02:30:17.245Z,11.2
2022-09-26T02:31:20.150Z,11.2
2022-09-26T02:32:24.332Z,11.2
2022-09-26T02:33:27.498Z,11.2
2022-09-26T02:34:30.585Z,11.2
2022-09-26T02:35:34.040Z,11.2
2022-09-26T02:36:37.181Z,11.2
2022-09-26T02:37:41.385Z,11.3
2022-09-26T02:38:45.199Z,11.3
2022-09-26T02:39:48.071Z,11.3
2022-09-26T02:40:51.093Z,11.3
2022-09-26T02:41:54.854Z,11.3
2022-09-26T02:42:58.189Z,11.3
2022-09-26T02:44:01.343Z,11.3
2022-09-26T02:45:04.423Z,11.3
2022-09-26T02:46:07.591Z,11.3
2022-09-26T02:47:10.582Z,11.3
2022-09-26T02:48:13.455Z,11.3
2022-09-26T02:49:16.509Z,11.3
2022-09-26T02:50:19.211Z,11.3
2022-09-26T02:51:22.273Z,11.3
2022-09-26T02:52:25.162Z,11.3
2022-09-26T02:53:29.262Z,11.3
2022-09-26T02:54:32.632Z,11.3
2022-09-26T02:55:35.422Z,11.3
2022-09-26T02:56:37.762Z,11.3
2022-09-26T02:57:40.471Z,11.3
2022-09-26T02:58:43.352Z,11.3
2022-09-26T02:59:46.404Z,11.3
2022-09-26T03:00:49.161Z,11.3
2022-09-26T03:01:52.883Z,11.3
2022-09-26T03:02:55.812Z,11.3
2022-09-26T03:03:59.265Z,11.4
2022-09-26T03:05:02.481Z,11.4
2022-09-26T03:06:05.311Z,11.4
2022-09-26T03:07:08.826Z,11.4
2022-09-26T03:08:11.999Z,11.4
2022-09-26T03:09:16.074Z,11.4
2022-09-26T03:10:19.033Z,11.4
2022-09-26T03:11:21.619Z,11.4
2022-09-26T03:12:24.480Z,11.4
2022-09-26T03:13:27.655Z,11.4
2022-09-26T03:14:30.440Z,11.4
2022-09-26T03:15:33.226Z,11.4
2022-09-26T03:16:37.006Z,11.4
2022-09-26T03:17:40.492Z,11.4
2022-09-26T03:18:43.011Z,11.4
2022-09-26T03:19:45.883Z,11.4
2022-09-26T03:20:48.864Z,11.4
2022-09-26T03:21:52.597Z,11.4
2022-09-26T03:22:56.049Z,11.4
2022-09-26T03:23:58.947Z,11.4
2022-09-26T03:25:03.101Z,11.4
2022-09-26T03:26:06.508Z,11.4
2022-09-26T03:27:09.309Z,11.4
2022-09-26T03:28:12.754Z,11.4
2022-09-26T03:29:15.770Z,11.4
2022-09-26T03:30:18.765Z,11.4
2022-09-26T03:31:21.892Z,11.4
2022-09-26T03:32:25.313Z,11.4
2022-09-26T03:33:27.835Z,11.4
2022-09-26T03:34:31.100Z,11.4
2022-09-26T03:35:33.993Z,11.4
2022-09-26T03:36:36.813Z,11.4
2022-09-26T03:37:39.961Z,11.4
2022-09-26T03:38:42.678Z,11.4
2022-09-26T03:39:45.547Z,11.4
2022-09-26T03:40:50.134Z,11.4
2022-09-26T03:41:54.322Z,11.4
2022-09-26T03:42:58.128Z,11.4
2022-09-26T03:44:00.361Z,11.4
2022-09-26T03:45:02.955Z,11.4
2022-09-26T03:46:06.429Z,11.4
2022-09-26T03:47:09.537Z,11.4
2022-09-26T03:48:12.404Z,11.4
2022-09-26T03:49:15.619Z,11.4
2022-09-26T03:50:18.539Z,11.4
2022-09-26T03:51:21.630Z,11.4
2022-09-26T03:52:24.415Z,11.4
2022-09-26T03:53:27.507Z,11.4
2022-09-26T03:54:29.377Z,11.4
2022-09-26T03:55:32.522Z,11.4
2022-09-26T03:56:36.715Z,11.4
2022-09-26T03:57:39.823Z,11.4
2022-09-26T03:58:42.816Z,11.4
2022-09-26T03:59:46.333Z,11.4
2022-09-26T04:00:49.843Z,11.4
2022-09-26T04:01:52.707Z,11.4
2022-09-26T04:02:55.987Z,11.4
2022-09-26T04:03:59.614Z,11.4
2022-09-26T04:05:02.408Z,11.4
2022-09-26T04:06:05.120Z,11.4
2022-09-26T04:07:08.003Z,11.4
2022-09-26T04:08:11.354Z,11.4
2022-09-26T04:09:17.933Z,11.4
2022-09-26T04:10:22.174Z,11.4
2022-09-26T04:11:25.110Z,11.4
2022-09-26T04:12:29.035Z,11.4
2022-09-26T04:13:54.259Z,11.4
2022-09-26T04:14:57.051Z,11.4
2022-09-26T04:16:00.267Z,11.4
2022-09-26T04:17:02.935Z,11.4
2022-09-26T04:18:05.647Z,11.4
2022-09-26T04:19:08.739Z,11.4
2022-09-26T04:20:12.045Z,11.4
2022-09-26T04:21:15.498Z,11.4
2022-09-26T04:22:18.224Z,11.4
2022-09-26T04:23:21.293Z,11.4
2022-09-26T04:24:24.937Z,11.4
2022-09-26T04:25:27.658Z,11.4
2022-09-26T04:26:31.384Z,11.4
2022-09-26T04:27:35.541Z,11.4
2022-09-26T04:28:38.915Z,11.4
2022-09-26T04:29:41.900Z,11.4
2022-09-26T04:30:44.501Z,11.4
2022-09-26T04:31:48.162Z,11.4
2022-09-26T04:32:51.478Z,11.5
2022-09-26T04:33:54.746Z,11.4
2022-09-26T04:34:57.989Z,11.4
2022-09-26T04:36:00.506Z,11.4
2022-09-26T04:37:03.228Z,11.5
2022-09-26T04:38:06.202Z,11.5
2022-09-26T04:39:09.014Z,11.5
2022-09-26T04:40:12.612Z,11.4
2022-09-26T04:41:16.032Z,11.5
2022-09-26T04:42:19.471Z,11.5
2022-09-26T04:43:23.018Z,11.5
2022-09-26T04:44:26.468Z,11.5
2022-09-26T04:45:29.049Z,11.5
2022-09-26T04:46:32.632Z,11.5
2022-09-26T04:47:35.411Z,11.5
2022-09-26T04:48:38.309Z,11.4
2022-09-26T04:49:41.749Z,11.5
2022-09-26T04:50:44.267Z,11.5
2022-09-26T04:51:46.978Z,11.5
2022-09-26T04:52:49.480Z,11.5
2022-09-26T04:53:52.950Z,11.5
2022-09-26T04:54:55.549Z,11.5
2022-09-26T04:55:58.259Z,11.5
2022-09-26T04:57:01.432Z,11.4
2022-09-26T04:58:03.763Z,11.5
2022-09-26T04:59:08.272Z,11.5
2022-09-26T05:00:11.143Z,11.5
2022-09-26T05:01:14.358Z,11.4
2022-09-26T05:02:18.356Z,11.5
2022-09-26T05:03:21.859Z,11.4
2022-09-26T05:04:28.535Z,11.5
2022-09-26T05:05:31.424Z,11.5
2022-09-26T05:06:34.248Z,11.5
2022-09-26T05:07:37.612Z,11.5
2022-09-26T05:08:41.358Z,11.4
2022-09-26T05:09:44.362Z,11.5
2022-09-26T05:10:47.431Z,11.5
2022-09-26T05:11:50.219Z,11.5
2022-09-26T05:12:53.701Z,11.5
2022-09-26T05:13:57.054Z,11.5
2022-09-26T05:15:01.009Z,11.5
2022-09-26T05:16:04.654Z,11.5
2022-09-26T05:17:07.570Z,11.5
2022-09-26T05:18:10.714Z,11.5
2022-09-26T05:19:14.018Z,11.5
2022-09-26T05:20:17.717Z,11.5
2022-09-26T05:21:20.466Z,11.5
2022-09-26T05:22:22.985Z,11.5
2022-09-26T05:23:25.486Z,11.5
2022-09-26T05:24:28.005Z,11.5
2022-09-26T05:25:31.084Z,11.6
2022-09-26T05:26:34.162Z,11.6
2022-09-26T05:27:36.868Z,11.6
2022-09-26T05:28:40.505Z,11.6
2022-09-26T05:29:43.358Z,11.6
2022-09-26T05:30:47.622Z,11.5
2022-09-26T05:31:51.083Z,11.5
2022-09-26T05:32:54.528Z,11.6
2022-09-26T05:33:57.888Z,11.6
2022-09-26T05:35:01.079Z,11.6
2022-09-26T05:36:04.080Z,11.6
2022-09-26T05:37:06.945Z,11.6
2022-09-26T05:38:10.046Z,11.7
2022-09-26T05:39:12.124Z,11.7
2022-09-26T05:40:14.734Z,11.7
2022-09-26T05:41:18.540Z,11.7
2022-09-26T05:42:21.073Z,11.7
2022-09-26T05:43:23.939Z,11.7
2022-09-26T05:44:27.531Z,11.7
2022-09-26T05:45:30.996Z,11.7
2022-09-26T05:46:35.448Z,11.7
2022-09-26T05:47:39.237Z,11.7
2022-09-26T05:48:41.950Z,11.7
2022-09-26T05:49:44.806Z,11.7
2022-09-26T05:50:47.895Z,11.7
2022-09-26T05:51:51.002Z,11.8
2022-09-26T05:52:53.609Z,11.8
2022-09-26T05:53:56.204Z,11.8
2022-09-26T05:54:59.565Z,11.8
2022-09-26T05:56:02.468Z,11.8
2022-09-26T05:57:04.894Z,11.8
2022-09-26T05:58:08.027Z,11.8
2022-09-26T05:59:11.340Z,11.8
2022-09-26T06:00:14.980Z,11.9
2022-09-26T06:01:18.477Z,11.8
2022-09-26T06:02:23.012Z,11.9
2022-09-26T06:03:26.865Z,11.9
2022-09-26T06:04:30.641Z,11.9
2022-09-26T06:05:34.360Z,11.9
2022-09-26T06:06:37.455Z,11.9
2022-09-26T06:07:40.527Z,11.9
2022-09-26T06:08:43.903Z,11.9
2022-09-26T06:09:46.340Z,11.9
2022-09-26T06:10:48.860Z,11.9
2022-09-26T06:11:51.365Z,11.9
2022-09-26T06:12:54.165Z,11.9
2022-09-26T06:13:57.253Z,11.9
2022-09-26T06:15:00.691Z,12
2022-09-26T06:16:03.621Z,12
2022-09-26T06:17:06.893Z,12
2022-09-26T06:18:10.703Z,12
2022-09-26T06:19:14.041Z,12
2022-09-26T06:20:25.922Z,12
2022-09-26T06:21:28.175Z,12
2022-09-26T06:22:30.988Z,12
2022-09-26T06:23:34.139Z,12.1
2022-09-26T06:24:36.859Z,12.1
2022-09-26T06:25:39.953Z,12.1
2022-09-26T06:26:43.309Z,12.2
2022-09-26T06:27:47.312Z,12.2
2022-09-26T06:28:50.695Z,12.2
2022-09-26T06:29:53.770Z,12.3
2022-09-26T06:30:57.150Z,12.3
2022-09-26T06:32:00.318Z,12.3
2022-09-26T06:33:03.824Z,12.3
2022-09-26T06:34:07.460Z,12.4
2022-09-26T06:35:10.582Z,12.4
2022-09-26T06:36:13.646Z,12.4
2022-09-26T06:37:16.736Z,12.4
2022-09-26T06:38:20.474Z,12.5
2022-09-26T06:39:23.205Z,12.5
2022-09-26T06:40:26.652Z,12.5
2022-09-26T06:41:30.338Z,12.5
2022-09-26T06:42:33.583Z,12.5
2022-09-26T06:43:37.037Z,12.5
2022-09-26T06:44:39.941Z,12.5
2022-09-26T06:45:43.939Z,12.5
2022-09-26T06:46:46.936Z,12.5
2022-09-26T06:47:50.562Z,12.5
2022-09-26T06:48:53.155Z,12.5
2022-09-26T06:49:57.090Z,12.5
2022-09-26T06:51:00.130Z,12.6
2022-09-26T06:52:02.856Z,12.6
2022-09-26T06:53:10.319Z,12.6
2022-09-26T06:54:12.989Z,12.6
2022-09-26T06:55:16.696Z,12.6
2022-09-26T06:56:20.118Z,12.6
2022-09-26T06:57:22.910Z,12.6
2022-09-26T06:58:25.415Z,12.6
2022-09-26T06:59:28.410Z,12.7
2022-09-26T07:00:31.736Z,12.7
2022-09-26T07:01:35.259Z,12.7
2022-09-26T07:02:38.735Z,12.7
2022-09-26T07:03:46.776Z,12.7
2022-09-26T07:04:50.622Z,12.7
2022-09-26T07:05:54.210Z,12.7
2022-09-26T07:06:59.089Z,12.7
2022-09-26T07:08:01.314Z,12.7
2022-09-26T07:09:15.732Z,12.7
2022-09-26T07:10:21.635Z,12.7
2022-09-26T07:12:14.903Z,12.8
2022-09-26T07:13:18.924Z,12.8
2022-09-26T07:14:22.082Z,12.8
2022-09-26T07:15:25.524Z,12.9
2022-09-26T07:16:28.879Z,12.9
2022-09-26T07:17:32.667Z,13
2022-09-26T07:18:35.473Z,13
2022-09-26T07:19:38.651Z,13
2022-09-26T07:20:42.084Z,13
2022-09-26T07:21:46.371Z,13.1
2022-09-26T07:22:49.582Z,13.1
2022-09-26T07:23:53.038Z,13.1
2022-09-26T07:24:55.270Z,13.1
2022-09-26T07:25:58.719Z,13.1
2022-09-26T07:27:01.779Z,13.2
2022-09-26T07:28:04.772Z,13.2
2022-09-26T07:29:07.837Z,13.2
2022-09-26T07:30:11.231Z,13.2
2022-09-26T07:31:14.461Z,13.2
2022-09-26T07:32:17.477Z,13.3
2022-09-26T07:33:20.571Z,13.3
2022-09-26T07:34:24.004Z,13.3
2022-09-26T07:35:27.003Z,13.3
2022-09-26T07:36:30.426Z,13.3
2022-09-26T07:37:34.303Z,13.3
2022-09-26T07:38:37.541Z,13.4
2022-09-26T07:39:40.699Z,13.4
2022-09-26T07:40:43.732Z,13.4
2022-09-26T07:41:48.177Z,13.4
2022-09-26T07:43:26.732Z,13.4
2022-09-26T07:46:37.698Z,13.4
2022-09-26T07:47:41.215Z,13.5
2022-09-26T07:48:43.648Z,13.5
2022-09-26T07:49:47.303Z,13.5
2022-09-26T07:50:51.053Z,13.5
2022-09-26T07:51:53.283Z,13.5
2022-09-26T07:52:57.561Z,13.6
2022-09-26T07:54:01.298Z,13.6
2022-09-26T07:55:03.730Z,13.6
2022-09-26T07:56:06.882Z,13.6
2022-09-26T07:57:10.292Z,13.6
2022-09-26T07:58:13.452Z,13.6
2022-09-26T07:59:16.257Z,13.6
2022-09-26T08:00:19.419Z,13.6
2022-09-26T08:01:23.405Z,13.7
2022-09-26T08:02:27.393Z,13.6
2022-09-26T08:03:31.450Z,13.7
2022-09-26T08:04:34.060Z,13.7
2022-09-26T08:05:37.127Z,13.7
2022-09-26T08:06:40.900Z,13.7
2022-09-26T08:07:44.014Z,13.7
2022-09-26T08:08:47.927Z,13.8
2022-09-26T08:09:51.477Z,13.7
2022-09-26T08:10:54.292Z,13.7
2022-09-26T08:11:57.480Z,13.8
2022-09-26T08:13:00.488Z,13.8
2022-09-26T08:14:03.010Z,13.8
2022-09-26T08:15:06.210Z,13.8
2022-09-26T08:16:09.526Z,13.9
2022-09-26T08:17:15.284Z,13.9
2022-09-26T08:18:18.009Z,13.9
2022-09-26T08:19:21.385Z,14
2022-09-26T08:20:32.837Z,14
2022-09-26T08:21:36.834Z,14.1
2022-09-26T08:22:39.643Z,14.1
2022-09-26T08:23:42.435Z,14.1
2022-09-26T08:24:46.652Z,14.2
2022-09-26T08:25:49.757Z,14.1
2022-09-26T08:26:52.561Z,14.2
2022-09-26T08:27:55.657Z,14.2
2022-09-26T08:28:58.393Z,14.2
2022-09-26T08:30:02.125Z,14.2
2022-09-26T08:31:06.256Z,14.3
2022-09-26T08:32:09.727Z,14.3
2022-09-26T08:33:12.816Z,14.4
2022-09-26T08:34:18.404Z,14.4
2022-09-26T08:35:28.408Z,14.5
2022-09-26T08:36:31.576Z,14.6
2022-09-26T08:37:33.853Z,14.6
2022-09-26T08:38:36.730Z,14.7
2022-09-26T08:39:39.322Z,14.8
2022-09-26T08:40:43.763Z,14.8
2022-09-26T08:41:47.014Z,14.9
2022-09-26T08:42:50.079Z,14.9
2022-09-26T08:43:53.421Z,15
2022-09-26T08:44:56.521Z,15.1
2022-09-26T08:45:59.619Z,15.1
2022-09-26T08:47:03.701Z,15.2
2022-09-26T08:48:06.675Z,15.2
2022-09-26T08:49:10.326Z,15.2
2022-09-26T08:50:13.233Z,15.3
2022-09-26T08:51:16.301Z,15.3
2022-09-26T08:52:19.101Z,15.3
2022-09-26T08:53:22.488Z,15.3
2022-09-26T08:54:25.557Z,15.3
2022-09-26T08:55:28.712Z,15.4
2022-09-26T08:56:32.989Z,15.4
2022-09-26T08:57:36.456Z,15.4
2022-09-26T08:58:39.405Z,15.4
2022-09-26T08:59:42.573Z,15.4
2022-09-26T09:00:45.438Z,15.4
2022-09-26T09:01:49.159Z,15.4
2022-09-26T09:02:53.194Z,15.4
2022-09-26T09:03:55.766Z,15.4
2022-09-26T09:04:59.200Z,15.4
2022-09-26T09:06:02.643Z,15.4
2022-09-26T09:07:05.637Z,15.5
2022-09-26T09:08:08.179Z,15.4
2022-09-26T09:09:11.278Z,15.5
2022-09-26T09:10:14.644Z,15.5
2022-09-26T09:11:17.798Z,15.5
2022-09-26T09:12:32.465Z,15.5
2022-09-26T09:13:36.184Z,15.5
2022-09-26T09:14:39.252Z,15.5
2022-09-26T09:15:43.074Z,15.5
2022-09-26T09:16:46.680Z,15.5
2022-09-26T09:17:49.749Z,15.5
2022-09-26T09:18:52.547Z,15.5
2022-09-26T09:19:55.987Z,15.5
2022-09-26T09:20:58.728Z,15.5
2022-09-26T09:22:01.876Z,15.6
2022-09-26T09:23:04.755Z,15.5
2022-09-26T09:24:07.702Z,15.6
2022-09-26T09:25:11.114Z,15.6
2022-09-26T09:29:12.614Z,15.5
2022-09-26T09:30:22.316Z,15.5
2022-09-26T09:31:26.125Z,15.5
2022-09-26T09:32:29.710Z,15.5
2022-09-26T09:33:33.059Z,15.5
2022-09-26T09:34:36.407Z,15.5
2022-09-26T09:35:39.761Z,15.5
2022-09-26T09:36:42.890Z,15.5
2022-09-26T09:37:46.544Z,15.5
2022-09-26T09:38:48.794Z,15.5
2022-09-26T09:39:52.080Z,15.6
2022-09-26T09:40:56.206Z,15.6
2022-09-26T09:41:59.550Z,15.6
2022-09-26T09:43:02.641Z,15.7
2022-09-26T09:44:05.864Z,15.7
2022-09-26T09:45:10.145Z,15.8
2022-09-26T09:46:14.117Z,15.8
2022-09-26T09:47:17.523Z,15.8
2022-09-26T09:48:20.628Z,15.8
2022-09-26T09:49:22.951Z,15.9
2022-09-26T09:50:26.037Z,15.9
2022-09-26T09:51:29.469Z,16
2022-09-26T09:52:34.900Z,16
2022-09-26T09:53:38.075Z,16.1
2022-09-26T09:54:41.155Z,16.1
2022-09-26T09:55:44.261Z,16.2
2022-09-26T09:56:47.993Z,16.3
2022-09-26T09:57:51.067Z,16.3
2022-09-26T09:58:54.399Z,16.4
2022-09-26T09:59:58.144Z,16.5
2022-09-26T10:01:01.825Z,16.5
2022-09-26T10:02:05.266Z,16.6
2022-09-26T10:03:08.459Z,16.7
2022-09-26T10:04:12.730Z,16.8
2022-09-26T10:05:15.767Z,16.9
2022-09-26T10:06:48.064Z,17
2022-09-26T10:07:51.327Z,17.1
2022-09-26T10:08:54.798Z,17.2
2022-09-26T10:09:57.403Z,17.2
2022-09-26T10:11:00.853Z,17.2
2022-09-26T10:12:03.741Z,17.2
2022-09-26T10:13:06.930Z,17.2
2022-09-26T10:14:10.288Z,17.2
2022-09-26T10:15:12.819Z,17.2
2022-09-26T10:16:16.908Z,17.2
2022-09-26T10:17:21.259Z,17.3
2022-09-26T10:18:27.791Z,17.3
2022-09-26T10:19:30.803Z,17.4
2022-09-26T10:20:34.495Z,17.5
2022-09-26T10:21:37.836Z,17.6
2022-09-26T10:22:40.658Z,17.6
2022-09-26T10:23:44.383Z,17.7
2022-09-26T10:24:47.857Z,17.7
2022-09-26T10:25:50.367Z,17.8
2022-09-26T10:26:53.510Z,17.8
2022-09-26T10:27:56.574Z,17.9
2022-09-26T10:29:00.086Z,17.9
2022-09-26T10:30:03.172Z,17.9
2022-09-26T10:31:07.160Z,17.9
2022-09-26T10:32:11.467Z,18
2022-09-26T10:33:14.818Z,17.9
2022-09-26T10:34:17.636Z,18
2022-09-26T10:35:21.024Z,18
2022-09-26T10:36:24.509Z,17.9
2022-09-26T10:37:27.025Z,18
2022-09-26T10:38:30.516Z,18
2022-09-26T10:39:34.027Z,18
2022-09-26T10:40:37.783Z,18
2022-09-26T10:41:41.539Z,18.1
2022-09-26T10:42:44.338Z,18.1
2022-09-26T10:43:47.798Z,18.1
2022-09-26T10:44:50.752Z,18.1
2022-09-26T10:45:53.610Z,18.1
2022-09-26T10:46:57.035Z,18.1
2022-09-26T10:48:01.609Z,18.2
2022-09-26T10:49:05.326Z,18.2
2022-09-26T10:50:09.129Z,18.2
2022-09-26T10:51:12.142Z,18.2
2022-09-26T10:52:19.318Z,18.2
2022-09-26T10:53:22.759Z,18.2
2022-09-26T10:54:25.938Z,18.3
2022-09-26T10:55:29.282Z,18.4
2022-09-26T10:56:32.155Z,18.5
2022-09-26T10:57:35.446Z,18.6
2022-09-26T10:58:37.850Z,18.6
2022-09-26T10:59:42.476Z,18.6
2022-09-26T11:00:45.901Z,18.7
2022-09-26T11:01:48.722Z,18.7
2022-09-26T11:02:52.692Z,18.7
2022-09-26T11:03:56.864Z,18.7
2022-09-26T11:05:00.404Z,18.6
2022-09-26T11:06:03.657Z,18.6
2022-09-26T11:07:06.950Z,18.6
2022-09-26T11:08:10.357Z,18.5
2022-09-26T11:09:14.090Z,18.5
2022-09-26T11:10:17.468Z,18.5
2022-09-26T11:11:20.525Z,18.4
2022-09-26T11:12:23.585Z,18.4
2022-09-26T11:13:26.235Z,18.3
2022-09-26T11:14:29.329Z,18.3
2022-09-26T11:15:33.362Z,18.2
2022-09-26T11:16:38.569Z,18.2
2022-09-26T11:17:41.392Z,18.1
2022-09-26T11:18:44.034Z,18
2022-09-26T11:19:55.399Z,18
2022-09-26T11:20:59.042Z,18
2022-09-26T11:22:09.043Z,17.9
2022-09-26T11:23:12.487Z,17.9
2022-09-26T11:24:15.830Z,17.8
2022-09-26T11:26:28.059Z,17.7
2022-09-26T11:29:46.851Z,17.7
2022-09-26T11:32:01.404Z,17.8
2022-09-26T11:34:14.049Z,17.8
2022-09-26T11:35:18.759Z,17.9
2022-09-26T11:36:22.482Z,17.9
2022-09-26T11:37:25.362Z,17.9
2022-09-26T11:38:28.112Z,17.9
2022-09-26T11:39:30.645Z,17.9
2022-09-26T11:40:33.721Z,17.9
2022-09-26T11:41:37.011Z,17.8
2022-09-26T11:42:40.106Z,17.8
2022-09-26T11:43:43.172Z,17.8
2022-09-26T11:44:46.656Z,17.7
2022-09-26T11:45:49.997Z,17.7
2022-09-26T11:46:53.265Z,17.6
2022-09-26T11:47:56.388Z,17.6
2022-09-26T11:48:59.565Z,17.5
2022-09-26T11:50:03.109Z,17.4
2022-09-26T11:51:07.253Z,17.4
2022-09-26T11:52:10.311Z,17.3
2022-09-26T11:53:13.651Z,17.3
2022-09-26T11:54:17.320Z,17.2
2022-09-26T11:55:20.846Z,17.2
2022-09-26T11:56:24.181Z,17.2
2022-09-26T11:57:26.684Z,17.1
2022-09-26T11:58:29.562Z,17.1
2022-09-26T11:59:32.565Z,17.1
2022-09-26T12:00:35.106Z,17
2022-09-26T12:01:38.569Z,17
2022-09-26T12:02:42.156Z,17
2022-09-26T12:03:45.866Z,17
2022-09-26T12:04:49.230Z,17
2022-09-26T12:05:52.196Z,17
2022-09-26T12:06:56.473Z,17
2022-09-26T12:07:59.567Z,17
2022-09-26T12:09:03.373Z,17
2022-09-26T12:10:06.272Z,16.9
2022-09-26T12:11:09.305Z,16.9
2022-09-26T12:12:12.457Z,16.9
2022-09-26T12:13:15.569Z,16.9
2022-09-26T12:14:18.729Z,16.9
2022-09-26T12:15:21.594Z,16.9
2022-09-26T12:16:25.017Z,16.9
2022-09-26T12:17:28.438Z,16.9
2022-09-26T12:18:31.155Z,16.9
2022-09-26T12:19:34.870Z,16.9
2022-09-26T12:20:38.059Z,17
2022-09-26T12:21:40.856Z,17
2022-09-26T12:22:44.961Z,17
2022-09-26T12:23:48.214Z,17.1
2022-09-26T12:24:51.836Z,17.1
2022-09-26T12:25:54.742Z,17.1
2022-09-26T12:26:57.577Z,17.2
2022-09-26T12:28:01.231Z,17.2
2022-09-26T12:29:03.914Z,17.2
2022-09-26T12:30:06.818Z,17.3
2022-09-26T12:31:10.435Z,17.3
2022-09-26T12:32:21.535Z,17.3
2022-09-26T12:33:24.886Z,17.3
2022-09-26T12:34:27.863Z,17.4
2022-09-26T12:35:31.585Z,17.4
2022-09-26T12:36:33.739Z,17.4
2022-09-26T12:37:36.836Z,17.5
2022-09-26T12:38:40.943Z,17.5
2022-09-26T12:39:43.808Z,17.6
2022-09-26T12:40:46.550Z,17.6
2022-09-26T12:41:50.071Z,17.6
2022-09-26T12:42:53.267Z,17.6
2022-09-26T12:43:57.001Z,17.6
2022-09-26T12:45:00.989Z,17.6
2022-09-26T12:46:04.429Z,17.6
2022-09-26T12:47:08.483Z,17.6
2022-09-26T12:48:11.929Z,17.6
2022-09-26T12:49:15.251Z,17.6
2022-09-26T12:50:20.120Z,17.6
2022-09-26T12:51:23.341Z,17.6
2022-09-26T12:52:28.535Z,17.6
2022-09-26T12:53:31.972Z,17.6
2022-09-26T12:54:35.865Z,17.6
2022-09-26T12:55:38.957Z,17.6
2022-09-26T12:56:41.488Z,17.6
2022-09-26T12:57:44.955Z,17.6
2022-09-26T12:58:47.834Z,17.6
2022-09-26T12:59:50.893Z,17.6
2022-09-26T13:00:53.724Z,17.6
2022-09-26T13:01:57.167Z,17.6
2022-09-26T13:03:00.110Z,17.6
2022-09-26T13:04:03.880Z,17.6
2022-09-26T13:05:06.975Z,17.6
2022-09-26T13:06:10.080Z,17.6
2022-09-26T13:07:21.328Z,17.7
2022-09-26T13:08:25.036Z,17.7
2022-09-26T13:09:27.977Z,17.7
2022-09-26T13:10:31.552Z,17.7
2022-09-26T13:11:34.902Z,17.7
2022-09-26T13:12:38.068Z,17.6
2022-09-26T13:13:41.744Z,17.7
2022-09-26T13:14:45.096Z,17.6
2022-09-26T13:15:49.388Z,17.6
2022-09-26T13:16:53.041Z,17.6
2022-09-26T13:17:56.213Z,17.5
2022-09-26T13:18:58.793Z,17.6
2022-09-26T13:20:01.694Z,17.6
2022-09-26T13:21:04.875Z,17.6
2022-09-26T13:22:08.044Z,17.6
2022-09-26T13:23:11.210Z,17.6
2022-09-26T13:24:14.288Z,17.5
2022-09-26T13:25:17.832Z,17.5
2022-09-26T13:26:21.928Z,17.5
2022-09-26T13:27:25.365Z,17.5
2022-09-26T13:28:28.070Z,17.5
2022-09-26T13:29:32.312Z,17.4
2022-09-26T13:30:35.494Z,17.4
2022-09-26T13:31:38.506Z,17.4
2022-09-26T13:32:41.566Z,17.4
2022-09-26T13:33:44.711Z,17.4
2022-09-26T13:34:48.514Z,17.4
2022-09-26T13:35:51.854Z,17.3
2022-09-26T13:36:55.290Z,17.3
2022-09-26T13:38:08.487Z,17.3
2022-09-26T13:39:11.769Z,17.3
2022-09-26T13:40:14.768Z,17.3
2022-09-26T13:41:17.506Z,17.3
2022-09-26T13:42:21.348Z,17.3
2022-09-26T13:43:24.966Z,17.3
2022-09-26T13:44:28.420Z,17.3
2022-09-26T13:45:31.605Z,17.3
2022-09-26T13:46:34.615Z,17.2
2022-09-26T13:47:38.383Z,17.2
2022-09-26T13:48:40.918Z,17.2
2022-09-26T13:49:43.988Z,17.2
2022-09-26T13:50:48.410Z,17.2
2022-09-26T13:51:52.333Z,17.2
2022-09-26T13:52:56.125Z,17.2
2022-09-26T13:53:58.878Z,17.2
2022-09-26T13:55:02.743Z,17.1
2022-09-26T13:56:06.462Z,17.1
2022-09-26T13:57:09.389Z,17.1
2022-09-26T13:58:13.517Z,17.1
2022-09-26T13:59:16.923Z,17.1
2022-09-26T14:00:19.740Z,17.1
2022-09-26T14:01:23.397Z,17.1
2022-09-26T14:02:27.714Z,17.1
2022-09-26T14:03:31.301Z,17.1
2022-09-26T14:04:34.910Z,17
2022-09-26T14:05:38.672Z,17
2022-09-26T14:06:42.183Z,17
2022-09-26T14:07:45.823Z,16.9
2022-09-26T14:08:48.224Z,16.9
2022-09-26T14:09:51.605Z,16.9
2022-09-26T14:10:54.851Z,16.9
2022-09-26T14:11:57.997Z,16.9
2022-09-26T14:13:01.747Z,16.9
2022-09-26T14:14:05.657Z,16.8
2022-09-26T14:15:08.825Z,16.8
2022-09-26T14:16:12.817Z,16.7
2022-09-26T14:17:21.065Z,16.7
2022-09-26T14:18:24.522Z,16.7
2022-09-26T14:19:27.132Z,16.7
2022-09-26T14:20:30.308Z,16.6